createdAt,value
2023-05-04T00:03:07.195Z,6.41
2023-05-04T00:08:09.033Z,6.36
2023-05-04T00:13:10.843Z,6.26
2023-05-04T00:18:12.645Z,6.13
2023-05-04T00:23:14.330Z,6.10
2023-05-04T00:28:15.985Z,5.94
2023-05-04T00:33:17.847Z,5.93
2023-05-04T00:38:19.529Z,5.93
2023-05-04T00:43:21.242Z,5.91
2023-05-04T00:48:23.335Z,5.96
2023-05-04T00:53:25.080Z,5.87
2023-05-04T00:58:26.737Z,5.83
2023-05-04T01:03:28.684Z,5.74
2023-05-04T01:08:39.397Z,5.59
2023-05-04T01:13:41.223Z,5.50
2023-05-04T01:18:42.892Z,5.46
2023-05-04T01:23:44.572Z,5.45
2023-05-04T01:28:46.152Z,5.35
2023-05-04T01:33:49.549Z,5.39
2023-05-04T01:38:55.257Z,5.34
2023-05-04T01:43:57.859Z,5.32
2023-05-04T01:49:01.595Z,5.23
2023-05-04T01:54:03.283Z,5.13
2023-05-04T01:59:05.901Z,5.12
2023-05-04T02:04:08.134Z,5.08
2023-05-04T02:09:09.941Z,4.97
2023-05-04T02:14:11.620Z,4.86
2023-05-04T02:19:13.272Z,4.87
2023-05-04T02:24:14.925Z,4.88
2023-05-04T02:29:16.517Z,4.86
2023-05-04T02:34:18.352Z,4.82
2023-05-04T02:39:22.814Z,4.83
2023-05-04T02:44:24.415Z,4.75
2023-05-04T02:49:26.682Z,4.68
2023-05-04T02:54:28.409Z,4.63
2023-05-04T02:59:30.012Z,4.63
2023-05-04T03:04:31.874Z,4.51
2023-05-04T03:09:33.547Z,4.50
2023-05-04T03:14:35.234Z,4.54
2023-05-04T03:19:37.296Z,4.51
2023-05-04T03:24:40.549Z,4.42
2023-05-04T03:29:42.591Z,4.30
2023-05-04T03:34:45.880Z,4.24
2023-05-04T03:39:48.541Z,4.21
2023-05-04T03:44:50.742Z,4.21
2023-05-04T03:49:52.619Z,4.27
2023-05-04T03:54:55.587Z,4.28
2023-05-04T03:59:58.015Z,4.18
2023-05-04T04:05:00.674Z,4.24
2023-05-04T04:10:03.357Z,4.24
2023-05-04T04:15:05.741Z,4.29
2023-05-04T04:20:09.004Z,4.37
2023-05-04T04:25:10.749Z,4.43
2023-05-04T04:30:13.560Z,4.62
2023-05-04T04:35:15.643Z,4.70
2023-05-04T04:40:18.124Z,4.82
2023-05-04T04:45:20.517Z,4.93
2023-05-04T04:50:22.576Z,5.07
2023-05-04T04:55:25.919Z,5.15
2023-05-04T05:00:27.697Z,5.29
2023-05-04T05:05:31.547Z,5.70
2023-05-04T05:10:33.555Z,6.18
2023-05-04T05:15:35.555Z,6.59
2023-05-04T05:20:37.214Z,7.09
2023-05-04T05:25:39.355Z,7.53
2023-05-04T05:30:41.099Z,8.06
2023-05-04T05:35:43.394Z,8.88
2023-05-04T05:40:45.062Z,9.92
2023-05-04T05:45:46.702Z,10.18
2023-05-04T05:50:48.342Z,9.78
2023-05-04T05:55:50.000Z,10.99
2023-05-04T06:00:51.627Z,11.26
2023-05-04T06:05:53.222Z,11.52
2023-05-04T06:10:56.412Z,12.00
2023-05-04T06:15:58.134Z,11.90
2023-05-04T06:21:00.698Z,11.73
2023-05-04T06:26:02.727Z,12.14
2023-05-04T06:31:04.474Z,13.04
2023-05-04T06:36:06.423Z,13.28
2023-05-04T06:41:08.138Z,13.91
2023-05-04T06:46:09.982Z,13.73
2023-05-04T06:51:11.655Z,14.09
2023-05-04T06:56:13.322Z,15.22
2023-05-04T07:01:16.903Z,15.44
2023-05-04T07:06:21.101Z,14.81
2023-05-04T07:11:23.536Z,14.94
2023-05-04T07:16:26.339Z,14.46
2023-05-04T07:21:29.485Z,14.80
2023-05-04T07:26:31.559Z,14.14
2023-05-04T07:31:33.796Z,14.67
2023-05-04T07:36:35.756Z,14.71
2023-05-04T07:41:37.746Z,15.37
2023-05-04T07:46:39.509Z,16.18
2023-05-04T07:51:41.480Z,16.10
2023-05-04T07:56:43.187Z,15.78
2023-05-04T08:01:44.889Z,15.23
2023-05-04T08:06:46.882Z,14.99
2023-05-04T08:11:50.382Z,15.14
2023-05-04T08:16:52.021Z,15.09
2023-05-04T08:21:53.771Z,15.29
2023-05-04T08:27:07.149Z,15.03
2023-05-04T08:32:10.105Z,15.35
2023-05-04T08:37:11.830Z,15.29
2023-05-04T08:42:13.499Z,15.60
2023-05-04T08:47:15.384Z,15.78
2023-05-04T08:52:17.746Z,16.10
2023-05-04T08:57:19.794Z,16.19
2023-05-04T09:02:23.409Z,16.07
2023-05-04T09:07:25.335Z,15.87
2023-05-04T09:12:27.866Z,16.10
2023-05-04T09:17:29.740Z,16.20
2023-05-04T09:22:31.515Z,16.09
2023-05-04T09:27:33.216Z,16.18
2023-05-04T09:32:48.522Z,16.34
2023-05-04T09:37:50.198Z,16.51
2023-05-04T09:42:56.854Z,16.70
2023-05-04T09:47:58.738Z,16.87
2023-05-04T09:53:00.962Z,16.99
2023-05-04T09:58:02.792Z,16.81
2023-05-04T10:03:06.344Z,16.87
2023-05-04T10:08:08.309Z,16.58
2023-05-04T10:13:10.198Z,16.50
2023-05-04T10:18:32.844Z,16.62
2023-05-04T10:24:30.584Z,16.68
2023-05-04T10:29:35.643Z,16.64
2023-05-04T10:34:37.451Z,16.88
2023-05-04T10:39:39.979Z,17.02
2023-05-04T10:44:55.110Z,17.25
2023-05-04T10:50:14.626Z,17.41
2023-05-04T10:55:17.426Z,17.34
2023-05-04T11:00:19.383Z,17.34
2023-05-04T11:05:21.037Z,17.39
2023-05-04T11:10:24.458Z,17.65
2023-05-04T11:15:26.200Z,17.75
2023-05-04T11:20:27.889Z,17.71
2023-05-04T11:25:30.652Z,17.64
2023-05-04T11:30:33.794Z,17.87
2023-05-04T11:35:35.424Z,18.13
2023-05-04T11:40:40.888Z,18.24
2023-05-04T11:45:42.734Z,18.35
2023-05-04T11:50:45.918Z,18.43
2023-05-04T11:55:47.610Z,18.73
2023-05-04T12:00:56.078Z,18.56
2023-05-04T12:05:58.782Z,18.53
2023-05-04T12:11:11.250Z,18.55
2023-05-04T12:16:20.457Z,18.80
2023-05-04T12:21:22.733Z,18.72
2023-05-04T12:26:24.604Z,18.77
2023-05-04T12:31:27.164Z,19.19
2023-05-04T12:36:28.957Z,19.24
2023-05-04T12:41:31.520Z,19.23
2023-05-04T12:46:33.304Z,19.15
2023-05-04T12:51:34.997Z,19.27
2023-05-04T12:56:37.309Z,19.37
2023-05-04T13:01:41.468Z,19.41
2023-05-04T13:06:43.235Z,19.37
2023-05-04T13:11:45.265Z,19.32
2023-05-04T13:16:48.032Z,19.45
2023-05-04T13:21:50.589Z,19.30
2023-05-04T13:26:52.231Z,19.39
2023-05-04T13:31:55.401Z,19.28
2023-05-04T13:36:57.164Z,19.53
2023-05-04T13:41:58.822Z,19.75
2023-05-04T13:47:02.173Z,19.90
2023-05-04T13:52:03.899Z,19.73
2023-05-04T13:57:05.569Z,20.06
2023-05-04T14:02:07.652Z,20.12
2023-05-04T14:07:12.045Z,19.97
2023-05-04T14:12:15.670Z,20.01
2023-05-04T14:17:17.630Z,20.03
2023-05-04T14:22:19.322Z,19.96
2023-05-04T14:27:21.131Z,19.72
2023-05-04T14:32:22.802Z,19.60
2023-05-04T14:37:24.441Z,19.62
2023-05-04T14:42:26.345Z,19.66
2023-05-04T14:47:29.053Z,19.64
2023-05-04T14:52:30.854Z,19.70
2023-05-04T14:57:33.212Z,19.56
2023-05-04T15:02:35.901Z,19.59
2023-05-04T15:07:37.896Z,19.48
2023-05-04T15:12:40.207Z,19.54
2023-05-04T15:17:42.066Z,19.45
2023-05-04T15:22:47.173Z,19.48
2023-05-04T15:27:48.767Z,19.58
2023-05-04T15:32:50.545Z,19.66
2023-05-04T15:37:52.780Z,19.65
2023-05-04T15:42:54.954Z,19.45
2023-05-04T15:47:59.399Z,19.50
2023-05-04T15:53:01.067Z,19.45
2023-05-04T15:58:03.081Z,19.33
2023-05-04T16:03:08.200Z,19.22
2023-05-04T16:08:09.960Z,19.10
2023-05-04T16:13:12.299Z,19.04
2023-05-04T16:18:14.057Z,19.08
2023-05-04T16:23:17.570Z,19.04
2023-05-04T16:28:19.222Z,19.04
2023-05-04T16:33:20.923Z,19.01
2023-05-04T16:38:22.554Z,19.00
2023-05-04T16:43:24.296Z,18.90
2023-05-04T16:48:25.964Z,18.72
2023-05-04T16:53:27.645Z,18.51
2023-05-04T16:58:29.518Z,18.39
2023-05-04T17:03:32.742Z,18.22
2023-05-04T17:08:35.017Z,18.07
2023-05-04T17:13:36.907Z,17.96
2023-05-04T17:18:38.573Z,17.91
2023-05-04T17:23:40.924Z,17.84
2023-05-04T17:28:42.899Z,17.78
2023-05-04T17:33:44.596Z,17.70
2023-05-04T17:38:46.299Z,17.62
2023-05-04T17:43:50.194Z,17.54
2023-05-04T17:48:53.186Z,17.44
2023-05-04T17:53:57.876Z,17.29
2023-05-04T17:58:59.578Z,17.18
2023-05-04T18:04:04.175Z,17.03
2023-05-04T18:09:06.097Z,16.89
2023-05-04T18:14:07.760Z,16.76
2023-05-04T18:19:09.503Z,16.65
2023-05-04T18:24:12.169Z,16.54
2023-05-04T18:29:18.899Z,16.41
2023-05-04T18:34:21.156Z,16.28
2023-05-04T18:39:22.807Z,16.13
2023-05-04T18:44:24.482Z,16.00
2023-05-04T18:49:26.138Z,15.88
2023-05-04T18:54:33.947Z,15.77
2023-05-04T18:59:36.308Z,15.65
2023-05-04T19:04:37.949Z,15.56
2023-05-04T19:09:39.819Z,15.43
2023-05-04T19:14:43.428Z,15.30
2023-05-04T19:19:45.112Z,15.21
2023-05-04T19:24:50.040Z,15.10
2023-05-04T19:29:51.681Z,15.05
2023-05-04T19:34:53.424Z,14.92
2023-05-04T19:39:55.097Z,14.75
2023-05-04T19:44:57.156Z,14.66
2023-05-04T19:49:58.950Z,14.51
2023-05-04T19:55:00.651Z,14.40
2023-05-04T20:00:03.062Z,14.27
2023-05-04T20:05:13.646Z,14.18
2023-05-04T20:10:15.322Z,14.08
2023-05-04T20:15:16.992Z,13.97
2023-05-04T20:20:20.451Z,13.84
2023-05-04T20:25:22.894Z,13.71
2023-05-04T20:30:28.079Z,13.68
2023-05-04T20:35:29.856Z,13.67
2023-05-04T20:40:32.167Z,13.56
2023-05-04T20:45:34.295Z,13.52
2023-05-04T20:50:36.006Z,13.44
2023-05-04T20:55:37.655Z,13.28
2023-05-04T21:00:40.096Z,13.18
2023-05-04T21:05:41.750Z,13.14
2023-05-04T21:10:43.395Z,13.03
2023-05-04T21:15:45.205Z,12.94
2023-05-04T21:20:47.119Z,12.82
2023-05-04T21:25:48.786Z,12.63
2023-05-04T21:30:50.455Z,12.46
2023-05-04T21:35:52.217Z,12.40
2023-05-04T21:40:53.836Z,12.27
2023-05-04T21:45:55.476Z,12.10
2023-05-04T21:50:57.231Z,11.98
2023-05-04T21:56:06.389Z,11.83
2023-05-04T22:01:08.715Z,11.70
2023-05-04T22:06:10.650Z,11.57
2023-05-04T22:11:12.302Z,11.48
2023-05-04T22:16:13.975Z,11.37
2023-05-04T22:21:15.763Z,11.24
2023-05-04T22:26:17.460Z,11.19
2023-05-04T22:31:19.325Z,11.12
2023-05-04T22:36:20.990Z,11.13
2023-05-04T22:41:22.718Z,11.10
2023-05-04T22:46:25.552Z,10.93
2023-05-04T22:51:30.376Z,10.91
2023-05-04T22:56:32.663Z,10.82
2023-05-04T23:01:34.401Z,10.77
2023-05-04T23:06:38.613Z,10.64
2023-05-04T23:11:40.693Z,10.60
2023-05-04T23:16:42.355Z,10.54
2023-05-04T23:21:43.991Z,10.45
2023-05-04T23:26:45.621Z,10.38
2023-05-04T23:31:47.324Z,10.21
2023-05-04T23:36:49.248Z,10.10
2023-05-04T23:41:50.931Z,10.05
2023-05-04T23:46:52.577Z,9.94
2023-05-04T23:51:54.215Z,9.86
2023-05-04T23:56:55.870Z,9.79
